Time;durP1;ratioP1;P1;durP2;ratioP2;P2;SDS_P1;SDS_P2;PMS_P1;PMS_P2;Temp;Humidity;BMP_temperature;BMP_pressure;BME280_temperature;BME280_humidity;BME280_pressure;Samples;Min_cycle;Max_cycle;Signal;HPM_P1;HPM_P2
2023/05/28 00:00:37;;;;;;;45.63;25.10;;;;;;;12.16;70.13;101953.53;4962401;28;20038;-71
2023/05/28 00:03:02;;;;;;;52.42;26.27;;;;;;;12.07;70.44;101960.53;4963986;28;20093;-71
2023/05/28 00:05:28;;;;;;;64.72;34.03;;;;;;;12.09;70.00;101964.03;4950985;28;20046;-71
2023/05/28 00:07:53;;;;;;;69.13;40.15;;;;;;;12.16;70.00;101958.81;4953215;28;20046;-71
2023/05/28 00:10:19;;;;;;;80.63;42.33;;;;;;;12.17;69.51;101963.16;4964655;28;20502;-71
2023/05/28 00:12:44;;;;;;;92.82;44.65;;;;;;;12.13;69.55;101954.41;4954731;28;20038;-71
2023/05/28 00:15:10;;;;;;;82.25;42.58;;;;;;;12.10;69.02;101947.41;4947398;28;20050;-71
2023/05/28 00:17:36;;;;;;;73.88;39.50;;;;;;;11.75;71.39;101948.25;4970524;28;20399;-71
2023/05/28 00:20:02;;;;;;;74.22;42.15;;;;;;;11.79;71.14;101935.97;4965155;28;20023;-71
2023/05/28 00:22:27;;;;;;;73.60;39.75;;;;;;;11.78;69.99;101950.00;4954044;28;20035;-71
2023/05/28 00:24:53;;;;;;;72.88;37.03;;;;;;;11.66;70.37;101956.09;4954726;28;20108;-71
2023/05/28 00:27:18;;;;;;;79.65;41.40;;;;;;;11.71;71.13;101943.88;4969873;28;20019;-71
2023/05/28 00:29:44;;;;;;;72.57;38.47;;;;;;;11.69;70.73;101950.84;4967785;28;20486;-71
2023/05/28 00:32:09;;;;;;;65.45;38.33;;;;;;;11.62;70.68;101949.09;4964481;28;20026;-71
2023/05/28 00:34:35;;;;;;;65.25;37.80;;;;;;;11.48;70.79;101951.69;4954037;28;20078;-71
2023/05/28 00:37:01;;;;;;;71.53;40.15;;;;;;;11.46;71.10;101950.81;4969045;28;20538;-71
2023/05/28 00:39:26;;;;;;;75.90;41.30;;;;;;;11.36;73.16;101951.66;4970349;28;20096;-71
2023/05/28 00:42:10;;;;;;;74.85;39.90;;;;;;;11.27;74.17;101952.50;4955947;28;20043;-71
2023/05/28 00:44:36;;;;;;;64.28;36.45;;;;;;;11.12;74.93;101950.72;4969671;28;20050;-71
2023/05/28 00:47:02;;;;;;;59.30;32.58;;;;;;;11.03;75.81;101954.19;4963328;28;20417;-71
2023/05/28 00:49:28;;;;;;;47.28;26.67;;;;;;;10.96;76.63;101955.03;4954130;28;20038;-71
2023/05/28 00:51:56;;;;;;;47.47;25.83;;;;;;;10.87;77.39;101962.84;4984820;28;20034;-71
2023/05/28 00:54:22;;;;;;;35.83;19.17;;;;;;;10.83;77.75;101964.59;4965549;28;20030;-71
2023/05/28 00:56:48;;;;;;;28.80;17.80;;;;;;;10.80;76.71;101963.69;4985800;28;20026;-71
2023/05/28 00:59:35;;;;;;;26.75;16.42;;;;;;;10.79;77.11;101964.53;4979668;28;20433;-71
2023/05/28 01:02:01;;;;;;;25.85;13.85;;;;;;;10.76;77.32;101962.81;4968050;28;20019;-71
2023/05/28 01:04:28;;;;;;;21.95;12.35;;;;;;;10.72;77.70;101955.78;4951827;28;20559;-71
2023/05/28 01:06:56;;;;;;;20.98;12.02;;;;;;;10.71;77.55;101964.50;4957400;28;20035;-73
2023/05/28 01:09:25;;;;;;;20.88;11.98;;;;;;;10.67;77.71;101952.25;4956899;28;20035;-74
2023/05/28 01:11:52;;;;;;;19.45;10.50;;;;;;;10.70;77.45;101953.16;4978950;28;20379;-74
2023/05/28 01:14:22;;;;;;;25.00;12.82;;;;;;;10.67;78.15;101957.50;4989334;28;20093;-74
2023/05/28 01:16:51;;;;;;;22.87;12.57;;;;;;;10.65;77.92;101951.38;4958367;28;20035;-74
2023/05/28 01:19:21;;;;;;;19.15;11.43;;;;;;;10.60;78.00;101947.84;4956408;28;20293;-74
2023/05/28 01:21:54;;;;;;;18.33;10.75;;;;;;;10.61;78.15;101949.59;4973360;28;20023;-73
2023/05/28 01:24:20;;;;;;;19.08;11.30;;;;;;;10.53;78.58;101955.66;4969680;28;20037;-73
2023/05/28 01:26:46;;;;;;;16.73;10.77;;;;;;;10.52;78.13;101953.03;4950371;28;20399;-74
2023/05/28 01:29:16;;;;;;;19.73;11.13;;;;;;;10.50;78.46;101957.38;4949014;28;20035;-74
2023/05/28 01:31:41;;;;;;;18.67;10.93;;;;;;;10.48;78.46;101953.88;4967281;28;20416;-74
2023/05/28 01:34:07;;;;;;;18.52;11.00;;;;;;;10.47;78.74;101950.38;4954672;28;20144;-74
2023/05/28 01:36:37;;;;;;;18.27;10.35;;;;;;;10.43;78.76;101953.88;4951621;28;20086;-74
2023/05/28 01:39:03;;;;;;;19.38;10.48;;;;;;;10.35;78.88;101956.41;4973696;28;20395;-74
2023/05/28 01:41:29;;;;;;;21.20;11.13;;;;;;;10.29;80.02;101955.47;4971244;28;20034;-75
2023/05/28 01:43:55;;;;;;;20.95;10.73;;;;;;;10.28;80.02;101956.34;4953444;29;20461;-74
2023/05/28 01:46:22;;;;;;;18.65;11.05;;;;;;;10.28;80.05;101958.94;4956646;28;20023;-74
2023/05/28 01:48:48;;;;;;;19.27;10.43;;;;;;;10.18;80.71;101956.25;4964060;28;20400;-74
2023/05/28 01:51:26;;;;;;;18.98;11.10;;;;;;;10.14;80.96;101966.69;4971081;28;20034;-74
2023/05/28 01:53:52;;;;;;;17.15;10.57;;;;;;;10.14;80.82;101967.59;4969135;28;20035;-74
2023/05/28 01:56:18;;;;;;;19.67;10.65;;;;;;;10.12;80.91;101960.59;4955570;28;20058;-71
2023/05/28 01:58:43;;;;;;;16.35;10.50;;;;;;;10.07;80.92;101957.94;4950611;28;20023;-71
2023/05/28 02:01:15;;;;;;;17.48;10.50;;;;;;;10.07;80.94;101950.06;4986682;28;20062;-71
2023/05/28 02:03:41;;;;;;;18.20;10.40;;;;;;;10.11;80.29;101951.81;4972080;28;20537;-71
2023/05/28 02:06:06;;;;;;;19.50;10.38;;;;;;;10.16;80.11;101949.28;4938240;28;20042;-71
2023/05/28 02:08:32;;;;;;;18.45;10.20;;;;;;;10.15;79.12;101950.13;4957062;28;20081;-71
2023/05/28 02:10:57;;;;;;;20.88;9.95;;;;;;;10.13;79.44;101938.75;4956092;28;20041;-71
2023/05/28 02:13:23;;;;;;;16.42;9.70;;;;;;;10.16;78.54;101949.28;4956270;28;20348;-71
2023/05/28 02:15:48;;;;;;;16.02;9.05;;;;;;;10.12;79.22;101942.25;4965428;28;20130;-71
2023/05/28 02:18:14;;;;;;;18.73;10.07;;;;;;;10.06;79.25;101933.47;4952003;28;20095;-71
2023/05/28 02:20:42;;;;;;;20.10;10.57;;;;;;;10.13;79.39;101931.78;4966385;28;20027;-71
2023/05/28 02:23:07;;;;;;;17.13;9.65;;;;;;;10.14;79.44;101930.94;4972992;28;20022;-71
2023/05/28 02:25:33;;;;;;;17.30;9.90;;;;;;;10.13;79.41;101925.66;4972847;28;20033;-71
2023/05/28 02:27:58;;;;;;;15.70;9.38;;;;;;;10.13;79.55;101929.16;4973301;28;20422;-71
2023/05/28 02:30:24;;;;;;;17.35;9.40;;;;;;;10.17;78.22;101923.09;4965246;28;20042;-72
2023/05/28 02:32:49;;;;;;;16.08;9.27;;;;;;;10.20;78.52;101916.97;4970192;28;20035;-71
2023/05/28 02:35:15;;;;;;;15.77;8.93;;;;;;;10.06;79.05;101919.50;4971845;28;20050;-71
2023/05/28 02:37:40;;;;;;;16.70;9.35;;;;;;;10.00;79.13;101922.94;4973021;28;20117;-71
2023/05/28 02:40:09;;;;;;;16.92;9.35;;;;;;;10.04;78.88;101923.84;4955714;28;20039;-71
2023/05/28 02:42:35;;;;;;;15.27;8.90;;;;;;;10.00;79.55;101927.31;4956946;28;20387;-71
2023/05/28 02:45:00;;;;;;;19.02;8.85;;;;;;;9.94;79.83;101928.16;4972630;28;20046;-71
2023/05/28 02:47:26;;;;;;;15.85;9.35;;;;;;;9.92;80.22;101929.84;4972929;28;20046;-71
2023/05/28 02:49:51;;;;;;;13.70;8.35;;;;;;;9.91;79.58;101933.34;4971158;28;20042;-71
2023/05/28 02:52:16;;;;;;;16.70;8.88;;;;;;;9.94;79.54;101933.38;4969316;28;20475;-71
2023/05/28 02:54:42;;;;;;;14.48;8.77;;;;;;;9.96;79.17;101936.00;4969909;28;20077;-71
2023/05/28 02:57:07;;;;;;;16.23;9.20;;;;;;;9.94;79.92;101933.38;4969807;28;20077;-71
2023/05/28 02:59:33;;;;;;;16.98;9.05;;;;;;;10.00;79.93;101937.78;4953866;28;20023;-72
2023/05/28 03:02:00;;;;;;;14.10;8.45;;;;;;;10.02;79.92;101934.31;4971088;28;20031;-74
2023/05/28 03:04:25;;;;;;;16.05;7.97;;;;;;;10.01;79.76;101940.44;4947872;28;20178;-74
2023/05/28 03:06:50;;;;;;;17.65;8.98;;;;;;;10.01;79.87;101945.66;4965848;28;20053;-74
2023/05/28 03:09:18;;;;;;;19.35;8.88;;;;;;;9.91;80.22;101937.69;4970373;28;20054;-74
2023/05/28 03:11:46;;;;;;;15.60;8.38;;;;;;;9.97;79.92;101943.88;4963465;28;20062;-74
2023/05/28 03:14:11;;;;;;;15.70;9.02;;;;;;;10.01;79.66;101939.53;4969363;28;20490;-73
2023/05/28 03:16:37;;;;;;;17.35;9.00;;;;;;;10.01;80.26;101944.75;4988339;28;20031;-73
2023/05/28 03:19:02;;;;;;;16.90;9.38;;;;;;;10.04;79.89;101934.31;4956028;28;20126;-74
2023/05/28 03:21:28;;;;;;;14.57;8.10;;;;;;;10.05;80.26;101938.69;4944762;28;20073;-74
2023/05/28 03:23:53;;;;;;;16.27;8.73;;;;;;;10.08;79.94;101940.47;4963796;28;20035;-74
2023/05/28 03:26:19;;;;;;;18.13;9.27;;;;;;;10.08;80.03;101943.09;4971641;28;20031;-74
2023/05/28 03:28:44;;;;;;;17.17;8.45;;;;;;;10.08;80.26;101945.69;4963863;28;20031;-74
2023/05/28 03:31:14;;;;;;;15.52;8.65;;;;;;;10.11;80.05;101935.25;4969460;28;20129;-74
2023/05/28 03:33:39;;;;;;;15.37;8.83;;;;;;;10.08;80.02;101936.09;4970621;28;20054;-74
2023/05/28 03:36:06;;;;;;;19.52;9.57;;;;;;;10.06;80.11;101925.59;4970728;28;20530;-74
2023/05/28 03:38:32;;;;;;;14.30;8.63;;;;;;;10.06;80.36;101929.97;4968612;28;20107;-74
2023/05/28 03:40:58;;;;;;;16.45;9.23;;;;;;;10.06;79.81;101930.84;4969364;28;20043;-74
2023/05/28 03:43:23;;;;;;;17.27;8.90;;;;;;;10.03;80.10;101929.97;4955783;28;20042;-74
2023/05/28 03:45:49;;;;;;;14.88;8.35;;;;;;;10.09;80.07;101937.00;4971322;28;20038;-74
2023/05/28 03:48:14;;;;;;;17.25;8.02;;;;;;;10.06;80.79;101943.06;4971902;28;20023;-74
2023/05/28 03:50:40;;;;;;;15.90;8.63;;;;;;;10.01;80.65;101950.00;4971266;28;20498;-74
2023/05/28 03:53:06;;;;;;;15.88;8.68;;;;;;;9.95;80.92;101942.97;4968909;28;20055;-74
2023/05/28 03:55:33;;;;;;;15.60;8.85;;;;;;;9.98;80.97;101949.97;4964976;28;20066;-74
2023/05/28 03:57:58;;;;;;;14.30;8.27;;;;;;;9.99;80.94;101949.13;4968190;28;20031;-74
2023/05/28 04:00:24;;;;;;;17.77;9.38;;;;;;;10.01;80.90;101945.66;4970474;28;20088;-74
2023/05/28 04:02:49;;;;;;;16.17;8.38;;;;;;;9.99;81.62;101951.75;4940885;28;20352;-73
2023/05/28 04:05:15;;;;;;;17.92;8.50;;;;;;;10.06;81.64;101954.41;4971114;28;20340;-74
2023/05/28 04:07:40;;;;;;;14.75;8.23;;;;;;;10.14;82.06;101956.22;4963363;28;20023;-73
2023/05/28 04:10:06;;;;;;;15.23;9.05;;;;;;;10.32;80.90;101951.13;4964967;28;20104;-74
2023/05/28 04:12:32;;;;;;;21.15;8.80;;;;;;;10.48;80.31;101951.25;4952949;28;20038;-74
2023/05/28 04:14:58;;;;;;;17.45;9.38;;;;;;;10.51;81.94;101949.53;4954611;28;20035;-74
2023/05/28 04:17:28;;;;;;;17.13;8.90;;;;;;;10.57;82.10;101952.22;4955274;28;20030;-74
2023/05/28 04:19:55;;;;;;;19.20;9.00;;;;;;;10.67;81.73;101953.09;4970931;28;20392;-74
2023/05/28 04:22:23;;;;;;;17.00;9.38;;;;;;;10.74;82.18;101954.03;4934233;29;20059;-74
2023/05/28 04:24:51;;;;;;;19.60;9.55;;;;;;;10.85;82.03;101957.59;4951110;28;20054;-74
2023/05/28 04:27:17;;;;;;;16.77;8.90;;;;;;;10.95;81.92;101960.25;4966799;28;20053;-74
2023/05/28 04:29:43;;;;;;;16.08;9.32;;;;;;;11.01;82.09;101963.78;4952920;28;20030;-73
2023/05/28 04:32:09;;;;;;;18.50;9.70;;;;;;;11.14;81.62;101953.34;4968598;28;20143;-74
2023/05/28 04:34:37;;;;;;;21.00;9.80;;;;;;;11.21;81.29;101955.13;4951493;28;20059;-74
2023/05/28 04:37:04;;;;;;;18.15;9.70;;;;;;;11.32;81.04;101963.91;4961846;28;20535;-74
2023/05/28 04:39:29;;;;;;;19.25;8.98;;;;;;;11.48;80.92;101972.69;4954305;28;20027;-74
2023/05/28 04:41:55;;;;;;;20.25;10.07;;;;;;;11.60;80.40;101974.47;4973734;28;20053;-74
2023/05/28 04:44:25;;;;;;;20.40;10.23;;;;;;;11.71;80.41;101975.38;4965683;28;20046;-74
2023/05/28 04:46:51;;;;;;;15.00;9.52;;;;;;;11.80;79.87;101969.25;4953141;28;20383;-74
2023/05/28 04:49:16;;;;;;;19.15;9.88;;;;;;;12.01;80.01;101968.44;4956806;28;20089;-74
2023/05/28 04:51:42;;;;;;;17.90;9.88;;;;;;;12.06;80.99;101971.91;4958926;28;20033;-74
2023/05/28 04:54:07;;;;;;;20.65;9.90;;;;;;;12.16;79.41;101967.53;4973399;28;20027;-74
2023/05/28 04:56:35;;;;;;;15.68;9.70;;;;;;;12.52;79.02;101967.53;4973217;28;20042;-74
2023/05/28 04:59:04;;;;;;;18.60;9.77;;;;;;;12.61;78.40;101971.00;4974729;28;20015;-74
2023/05/28 05:01:32;;;;;;;21.02;10.13;;;;;;;12.64;78.27;101968.38;4974635;28;20407;-74
2023/05/28 05:03:58;;;;;;;27.60;9.85;;;;;;;12.78;77.11;101965.69;4970100;28;20060;-74
2023/05/28 05:06:23;;;;;;;18.58;10.07;;;;;;;13.14;77.10;101966.41;4971912;28;20034;-74
2023/05/28 05:08:48;;;;;;;18.90;8.85;;;;;;;13.19;77.13;101969.06;4952936;28;20035;-75
2023/05/28 05:11:14;;;;;;;18.05;9.18;;;;;;;13.36;77.14;101969.00;4974388;28;20085;-75
2023/05/28 05:13:39;;;;;;;16.23;8.48;;;;;;;13.62;75.57;101970.59;4974478;28;20030;-74
2023/05/28 05:16:05;;;;;;;17.75;8.90;;;;;;;13.70;74.25;101979.31;4958017;28;20470;-75
2023/05/28 05:18:30;;;;;;;18.48;8.38;;;;;;;13.82;74.46;101973.09;4958321;28;20493;-75
2023/05/28 05:20:57;;;;;;;19.77;8.73;;;;;;;14.12;74.31;101977.28;4972766;28;20034;-75
2023/05/28 05:23:22;;;;;;;14.77;8.50;;;;;;;14.30;74.26;101970.94;4974034;28;20041;-75
2023/05/28 05:25:48;;;;;;;19.63;9.60;;;;;;;14.30;73.16;101984.13;4973468;28;20050;-75
2023/05/28 05:28:13;;;;;;;14.75;8.45;;;;;;;14.58;72.44;101983.00;4974160;28;20142;-75
2023/05/28 05:30:38;;;;;;;19.35;8.50;;;;;;;14.69;71.55;101989.94;4971768;28;20042;-75
2023/05/28 05:33:04;;;;;;;17.92;8.25;;;;;;;14.94;71.61;101979.13;4990343;28;20027;-75
2023/05/28 05:35:29;;;;;;;18.17;9.13;;;;;;;15.04;70.10;101974.59;4974656;28;20081;-75
2023/05/28 05:37:55;;;;;;;18.75;9.10;;;;;;;15.35;69.71;101982.13;4968454;28;20514;-75
2023/05/28 05:40:20;;;;;;;18.08;8.25;;;;;;;15.62;69.39;101986.16;4933169;28;20035;-75
2023/05/28 05:42:46;;;;;;;16.95;9.13;;;;;;;15.68;69.90;101987.84;4967412;28;20026;-75
2023/05/28 05:45:11;;;;;;;19.65;8.70;;;;;;;15.81;68.08;101991.19;4973298;28;20375;-75
2023/05/28 05:47:37;;;;;;;17.92;9.07;;;;;;;16.23;67.93;101986.09;4965413;28;20027;-75
2023/05/28 05:50:04;;;;;;;19.50;9.38;;;;;;;16.55;66.76;101992.59;4985864;28;20023;-75
2023/05/28 05:52:30;;;;;;;18.75;8.80;;;;;;;16.84;65.97;102000.00;4965468;28;20183;-75
2023/05/28 05:54:55;;;;;;;16.23;7.95;;;;;;;17.08;64.87;101998.66;4971891;28;20137;-75
2023/05/28 05:57:22;;;;;;;16.90;8.15;;;;;;;17.02;62.29;102001.41;4955920;28;20498;-76
2023/05/28 05:59:47;;;;;;;16.15;8.55;;;;;;;17.29;64.54;102005.28;4964762;28;20455;-73
2023/05/28 06:02:13;;;;;;;19.52;8.95;;;;;;;17.52;62.52;102003.91;4939315;28;20114;-73
2023/05/28 06:04:38;;;;;;;15.40;8.13;;;;;;;17.60;61.63;102001.09;4971423;28;20054;-72
2023/05/28 06:07:06;;;;;;;15.32;7.75;;;;;;;17.83;60.76;102000.56;4973828;28;20035;-72
2023/05/28 06:09:33;;;;;;;19.83;8.90;;;;;;;18.02;59.59;102000.16;4957203;28;20097;-73
2023/05/28 06:11:59;;;;;;;17.65;8.60;;;;;;;18.12;59.76;101999.00;4953387;29;20404;-73
2023/05/28 06:14:26;;;;;;;17.17;8.40;;;;;;;18.39;60.63;102002.75;4971057;28;20030;-72
2023/05/28 06:16:52;;;;;;;20.20;8.18;;;;;;;18.64;58.99;101996.78;4973116;28;20046;-73
2023/05/28 06:19:17;;;;;;;17.27;8.50;;;;;;;18.79;59.14;102008.75;4956473;28;20038;-72
2023/05/28 06:21:43;;;;;;;16.00;8.05;;;;;;;19.03;58.44;102000.13;4973519;28;20081;-73
2023/05/28 06:24:08;;;;;;;14.18;7.85;;;;;;;19.02;58.77;102002.81;4972393;28;20130;-73
2023/05/28 06:26:34;;;;;;;16.33;8.73;;;;;;;19.24;56.71;101997.75;4965923;28;20023;-73
2023/05/28 06:29:01;;;;;;;14.23;8.45;;;;;;;19.37;57.05;101995.63;4957567;28;20179;-73
2023/05/28 06:31:27;;;;;;;15.45;8.05;;;;;;;19.53;53.97;101993.34;4979313;28;20042;-75
2023/05/28 06:33:52;;;;;;;15.35;8.38;;;;;;;19.54;54.71;101984.47;4972852;28;20158;-73
2023/05/28 06:36:18;;;;;;;15.93;8.93;;;;;;;19.95;57.76;101990.25;4972117;28;20092;-73
2023/05/28 06:38:43;;;;;;;19.00;8.93;;;;;;;19.52;52.89;101984.50;4971183;28;20042;-73
2023/05/28 06:41:08;;;;;;;14.77;9.23;;;;;;;19.33;52.76;101992.16;4952909;28;20039;-74
2023/05/28 06:43:35;;;;;;;21.00;9.30;;;;;;;19.44;52.37;101990.97;4950779;28;20042;-74
2023/05/28 06:46:00;;;;;;;18.77;8.57;;;;;;;19.57;53.56;101987.03;4950116;28;20034;-73
2023/05/28 06:48:26;;;;;;;16.63;8.23;;;;;;;20.01;53.76;101990.06;4949340;28;20043;-72
2023/05/28 06:50:51;;;;;;;16.60;8.88;;;;;;;19.95;51.96;101990.25;4954469;28;20031;-74
2023/05/28 06:53:16;;;;;;;19.55;8.27;;;;;;;20.15;54.30;101992.25;4965421;28;20066;-73
2023/05/28 06:55:42;;;;;;;14.52;7.55;;;;;;;20.16;51.86;101996.66;4953791;28;20035;-72
2023/05/28 06:58:07;;;;;;;21.73;8.05;;;;;;;20.51;51.62;101988.38;4971422;28;20039;-73
2023/05/28 07:00:33;;;;;;;15.63;8.13;;;;;;;20.64;49.74;101994.16;4949218;28;20027;-73
2023/05/28 07:02:58;;;;;;;18.90;8.48;;;;;;;20.56;51.05;101997.09;4950907;28;20408;-73
2023/05/28 07:05:24;;;;;;;14.40;7.45;;;;;;;20.63;52.57;101995.06;4961609;28;20340;-72
2023/05/28 07:07:49;;;;;;;13.02;7.40;;;;;;;20.70;52.58;101997.50;4952898;29;20480;-74
2023/05/28 07:10:15;;;;;;;15.02;7.90;;;;;;;20.81;51.27;101991.78;4958553;28;20043;-73
2023/05/28 07:12:41;;;;;;;16.20;7.35;;;;;;;20.36;48.81;101995.13;4950564;28;20034;-74
2023/05/28 07:15:07;;;;;;;11.88;7.80;;;;;;;20.18;49.87;101997.47;4962976;28;20077;-73
2023/05/28 07:17:33;;;;;;;14.98;7.60;;;;;;;20.24;50.77;101994.63;4967578;28;20432;-73
2023/05/28 07:19:58;;;;;;;18.00;8.18;;;;;;;20.41;50.04;102003.81;4969433;28;20026;-74
2023/05/28 07:22:25;;;;;;;19.48;7.75;;;;;;;20.56;51.54;102002.41;4951133;28;20041;-74
2023/05/28 07:24:50;;;;;;;22.70;8.85;;;;;;;20.43;50.95;102000.19;4968104;28;20383;-73
2023/05/28 07:27:16;;;;;;;15.13;8.30;;;;;;;20.35;49.04;102009.34;4968339;28;20034;-75
2023/05/28 07:29:41;;;;;;;20.48;7.78;;;;;;;20.14;49.86;102008.28;4943792;28;20031;-74
2023/05/28 07:32:07;;;;;;;15.13;7.85;;;;;;;20.39;51.53;102001.19;4954227;28;20031;-73
2023/05/28 07:34:32;;;;;;;13.27;7.32;;;;;;;20.18;49.22;102007.25;4951238;28;20055;-73
2023/05/28 07:36:57;;;;;;;15.77;7.30;;;;;;;20.12;49.90;102010.13;4949569;28;20041;-73
2023/05/28 07:39:23;;;;;;;18.02;8.40;;;;;;;19.97;51.15;102009.72;4961780;28;20089;-73
2023/05/28 07:41:48;;;;;;;19.08;8.38;;;;;;;20.31;53.13;102011.22;4967577;28;20137;-72
2023/05/28 07:44:15;;;;;;;15.73;7.80;;;;;;;20.25;49.90;102009.66;4968804;28;20023;-73
2023/05/28 07:46:41;;;;;;;12.10;6.05;;;;;;;20.38;49.08;102009.25;4967921;28;20467;-73
2023/05/28 07:49:07;;;;;;;12.70;5.90;;;;;;;20.27;48.99;102009.63;4968690;28;20088;-73
2023/05/28 07:51:33;;;;;;;13.70;5.57;;;;;;;19.92;47.81;102011.66;4971209;28;20026;-74
2023/05/28 07:53:58;;;;;;;13.73;6.15;;;;;;;20.01;48.40;102011.38;4968974;28;20122;-72
2023/05/28 07:56:24;;;;;;;15.40;5.50;;;;;;;19.95;49.07;102011.53;4954072;28;20026;-71
2023/05/28 07:58:49;;;;;;;17.67;6.50;;;;;;;20.15;49.71;102013.53;4953606;28;20030;-74
2023/05/28 08:01:15;;;;;;;11.57;5.43;;;;;;;20.20;48.43;102008.94;4954021;28;20395;-72
2023/05/28 08:03:41;;;;;;;16.00;6.05;;;;;;;20.37;47.85;102015.47;4970742;28;20038;-79
2023/05/28 08:06:08;;;;;;;11.73;5.65;;;;;;;20.40;48.78;102002.94;4968059;28;20035;-76
2023/05/28 08:08:34;;;;;;;11.68;4.97;;;;;;;20.46;46.46;102003.63;4970378;28;20476;-78
2023/05/28 08:10:59;;;;;;;10.93;5.35;;;;;;;20.31;47.46;102013.03;4969256;28;20161;-75
2023/05/28 08:13:25;;;;;;;15.88;4.75;;;;;;;20.27;46.71;102014.94;4951004;28;20030;-76
2023/05/28 08:15:51;;;;;;;12.65;5.30;;;;;;;20.23;47.98;102010.66;4971405;28;20034;-77
2023/05/28 08:18:17;;;;;;;12.55;4.85;;;;;;;20.02;46.93;102010.41;4968942;28;20042;-76
2023/05/28 08:20:42;;;;;;;11.65;5.35;;;;;;;19.94;46.65;102014.25;4972571;28;20026;-76
2023/05/28 08:23:08;;;;;;;13.98;5.65;;;;;;;19.85;47.94;102004.78;4972284;28;20074;-76
2023/05/28 08:25:33;;;;;;;12.77;4.97;;;;;;;19.98;50.33;102014.09;4965318;28;20038;-77
2023/05/28 08:27:59;;;;;;;11.60;4.88;;;;;;;19.99;47.74;102007.88;4973635;28;21175;-74
2023/05/28 08:30:25;;;;;;;12.05;4.82;;;;;;;19.96;47.15;102012.44;4971078;28;20031;-78
2023/05/28 08:32:50;;;;;;;15.32;5.90;;;;;;;20.00;47.04;102014.94;4958333;28;20574;-75
2023/05/28 08:35:16;;;;;;;10.20;4.85;;;;;;;20.11;49.56;102008.38;4943331;28;20047;-75
2023/05/28 08:37:42;;;;;;;11.77;4.95;;;;;;;20.08;47.64;101998.69;4972355;28;20035;-75
2023/05/28 08:40:08;;;;;;;12.52;4.90;;;;;;;20.14;45.94;102008.28;4957041;28;20022;-75
2023/05/28 08:42:35;;;;;;;10.35;4.63;;;;;;;19.99;47.36;102012.31;4967352;28;20050;-76
2023/05/28 08:45:02;;;;;;;11.38;4.93;;;;;;;19.83;46.55;102009.28;4949709;28;20042;-74
2023/05/28 08:47:31;;;;;;;12.55;5.25;;;;;;;19.90;48.00;102006.38;4970749;28;20058;-74
2023/05/28 08:50:01;;;;;;;10.70;4.20;;;;;;;19.94;48.93;101999.19;4944189;28;20035;-72
2023/05/28 08:52:29;;;;;;;11.27;4.40;;;;;;;19.95;46.03;102008.88;4983160;28;20122;-73
2023/05/28 08:54:55;;;;;;;9.90;4.90;;;;;;;19.84;45.70;101997.72;4969782;28;20035;-74
2023/05/28 08:57:21;;;;;;;9.18;4.30;;;;;;;19.88;46.83;102004.69;4972206;28;20388;-73
2023/05/28 08:59:47;;;;;;;12.98;5.28;;;;;;;19.96;46.85;101991.16;4972356;28;20450;-74
2023/05/28 09:02:14;;;;;;;11.45;4.45;;;;;;;20.04;47.47;101989.97;4953773;28;20033;-73
2023/05/28 09:04:40;;;;;;;18.30;5.93;;;;;;;20.10;47.97;101988.00;4970857;28;20031;-74
2023/05/28 09:07:05;;;;;;;11.90;4.82;;;;;;;20.16;46.19;101980.69;4973922;28;20030;-75
2023/05/28 09:09:31;;;;;;;13.80;5.80;;;;;;;20.22;46.95;101983.13;4947292;28;20051;-75
2023/05/28 09:12:05;;;;;;;13.98;5.05;;;;;;;20.29;47.73;101983.81;4939156;29;20090;-74
2023/05/28 09:14:36;;;;;;;12.15;5.15;;;;;;;20.26;46.13;101978.59;4956653;28;20030;-75
2023/05/28 09:17:03;;;;;;;16.80;5.28;;;;;;;20.44;46.83;101987.72;4980129;28;20046;-75
2023/05/28 09:19:29;;;;;;;13.27;5.03;;;;;;;20.46;48.22;101974.34;4965829;28;20030;-73
2023/05/28 09:21:56;;;;;;;16.00;6.25;;;;;;;20.42;46.05;101990.44;4973898;28;20031;-74
2023/05/28 09:24:25;;;;;;;11.30;4.80;;;;;;;20.46;47.30;101985.88;4967299;28;20110;-73
2023/05/28 09:26:54;;;;;;;10.70;5.15;;;;;;;20.67;47.32;101984.28;4984101;28;20038;-73
2023/05/28 09:29:21;;;;;;;11.77;5.45;;;;;;;20.67;46.56;101978.09;4967096;28;20023;-72
2023/05/28 09:32:00;;;;;;;11.98;4.78;;;;;;;20.74;46.84;101982.25;4969765;28;20046;-73
2023/05/28 09:34:31;;;;;;;16.88;5.18;;;;;;;20.96;47.93;101971.69;4963785;28;20074;-74
2023/05/28 09:37:03;;;;;;;12.35;4.82;;;;;;;21.10;47.96;101976.50;4954679;28;20148;-72
2023/05/28 09:39:29;;;;;;;11.45;4.75;;;;;;;21.11;46.76;101979.09;4969309;28;20440;-74
2023/05/28 09:42:09;;;;;;;10.82;4.70;;;;;;;21.06;45.57;101973.09;4969225;28;20341;-72
2023/05/28 09:44:36;;;;;;;11.93;5.37;;;;;;;21.06;46.75;101977.53;4969153;28;20035;-73
2023/05/28 09:47:21;;;;;;;10.82;4.68;;;;;;;21.22;47.20;101980.47;4968415;28;20308;-72
2023/05/28 09:49:47;;;;;;;12.18;5.13;;;;;;;21.23;47.31;101977.78;4967472;28;20039;-76
2023/05/28 09:52:22;;;;;;;11.10;5.18;;;;;;;21.00;44.95;101967.09;4967539;28;20558;-72
2023/05/28 09:54:53;;;;;;;13.15;4.57;;;;;;;21.03;44.71;101974.97;4980604;28;20487;-72
2023/05/28 09:57:23;;;;;;;10.50;4.50;;;;;;;21.17;47.32;101962.00;4969147;28;20344;-73
2023/05/28 09:59:54;;;;;;;12.38;5.10;;;;;;;21.21;44.69;101970.75;4953716;28;20043;-74
2023/05/28 10:02:40;;;;;;;;;;;;;;;21.38;45.87;101967.44;4966168;28;20403;-73
2023/05/28 10:05:08;;;;;;;14.18;4.25;;;;;;;21.30;44.95;101959.72;4962554;28;19918;-72
2023/05/28 10:07:34;;;;;;;10.68;4.57;;;;;;;21.40;45.66;101963.75;4965031;28;20035;-74
2023/05/28 10:10:03;;;;;;;10.35;4.45;;;;;;;21.53;45.19;101963.31;4979357;28;20085;-73
2023/05/28 10:12:30;;;;;;;10.35;4.47;;;;;;;21.58;42.31;101966.69;4971885;28;20044;-75
2023/05/28 10:14:57;;;;;;;12.63;4.85;;;;;;;21.66;45.11;101964.56;4968676;28;20065;-72
2023/05/28 10:17:22;;;;;;;11.23;4.47;;;;;;;21.58;42.02;101966.69;4951314;28;20035;-73
2023/05/28 10:19:49;;;;;;;8.00;4.10;;;;;;;21.77;45.00;101961.47;4963899;28;20086;-73
2023/05/28 10:22:16;;;;;;;9.40;4.72;;;;;;;21.85;42.23;101964.69;4967040;28;20390;-73
2023/05/28 10:24:43;;;;;;;9.57;4.43;;;;;;;21.86;43.10;101970.88;4981251;28;20029;-75
2023/05/28 10:27:13;;;;;;;11.65;4.30;;;;;;;21.83;41.50;101960.34;4936882;28;20475;-74
2023/05/28 10:29:43;;;;;;;10.38;4.22;;;;;;;21.96;43.07;101970.41;4982399;28;20027;-73
2023/05/28 10:32:09;;;;;;;10.85;4.68;;;;;;;22.06;43.43;101962.91;4953077;28;20039;-73
2023/05/28 10:34:36;;;;;;;7.75;4.22;;;;;;;22.28;43.62;101961.97;4969553;28;20113;-78
2023/05/28 10:37:03;;;;;;;8.48;3.80;;;;;;;22.30;41.81;101965.47;4969842;28;20133;-77
2023/05/28 10:39:38;;;;;;;12.43;4.40;;;;;;;22.23;39.96;101959.50;4971496;28;20087;-78
2023/05/28 10:42:06;;;;;;;7.95;3.83;;;;;;;22.31;41.42;101967.19;4984653;28;20039;-75
2023/05/28 10:45:03;;;;;;;10.65;4.10;;;;;;;22.43;41.04;101966.69;4982363;28;20023;-76
2023/05/28 10:47:34;;;;;;;11.18;4.30;;;;;;;22.52;41.12;101969.91;4965995;28;20150;-76
2023/05/28 10:50:00;;;;;;;9.45;3.90;;;;;;;22.56;42.25;101972.34;4964102;28;20046;-76
2023/05/28 10:52:25;;;;;;;10.40;3.72;;;;;;;22.52;37.57;101975.25;4960791;28;20513;-77
2023/05/28 10:54:53;;;;;;;8.55;4.28;;;;;;;22.67;42.04;101979.91;4953912;28;20054;-77
2023/05/28 10:57:22;;;;;;;9.98;4.68;;;;;;;22.66;40.58;101976.34;4957397;28;20035;-77
2023/05/28 10:59:49;;;;;;;8.70;4.07;;;;;;;22.64;41.05;101978.22;4969630;28;20073;-79
2023/05/28 11:02:22;;;;;;;10.68;4.60;;;;;;;22.73;41.05;101976.06;4968007;28;20035;-77
2023/05/28 11:05:01;;;;;;;13.57;4.45;;;;;;;22.77;39.59;101980.34;4963204;28;20344;-77
2023/05/28 11:07:31;;;;;;;9.97;4.70;;;;;;;22.74;40.28;101978.69;4968237;28;20112;-76
2023/05/28 11:10:00;;;;;;;16.48;4.72;;;;;;;22.66;40.06;101987.03;4969540;28;20298;-74
2023/05/28 11:12:26;;;;;;;12.75;5.13;;;;;;;22.70;39.91;101968.19;4956755;28;20813;-74
2023/05/28 11:14:52;;;;;;;10.38;4.70;;;;;;;22.69;40.57;101972.69;4953903;28;20035;-73